22 de mayo de 2022

Hora Código Tiempo Temp. Visibilidad Nubes Viento METAR/SPECI
08:20
V
15 °C 10 km+ - 150°   150° 4 kt METAR ETHN 220620Z 15004KT 9999 FEW045 15/09 Q1017 BLU+
07:20
V
12 °C 10 km+ - 120°   120° 5 kt METAR ETHN 220520Z 12005KT 9999 FEW045 SCT300 12/09 Q1017 BLU+
06:20
V
10 °C 10 km+ - 120°   120° 6 kt METAR ETHN 220420Z 12006KT 9999 SCT045 SCT300 10/07 Q1018 BLU+
05:20
V
9 °C 10 km+ - 120°   120° 5 kt METAR ETHN 220320Z 12005KT 9999 FEW045 SCT280 09/07 Q1018 BLU+
04:20
V
9 °C 10 km+ - 120°   120° 4 kt METAR ETHN 220220Z 12004KT 9999 FEW045 09/07 Q1018 BLU+
03:20
V
10 °C 10 km+ - 150°   150° 3 kt METAR ETHN 220120Z 15003KT 9999 SCT045 10/08 Q1019 BLU+
02:20
V
11 °C 10 km+ - 140°   140° 3 kt METAR ETHN 220020Z 14003KT 9999 FEW045 11/07 Q1019 BLU+
01:20
V
10 °C 10 km+ - 120°   120° 3 kt METAR ETHN 212320Z 12003KT 9999 FEW045 SCT120 10/08 Q1019 BLU+
00:20
V
10 °C 10 km+ - 100°   100° 2 kt METAR ETHN 212220Z 10002KT 9999 SCT130 SCT320 10/09 Q1020 BLU+

21 de mayo de 2022

Hora Código Tiempo Temp. Visibilidad Nubes Viento METAR/SPECI
23:20
V
11 °C 10 km+ 32.000 ft Var   Var 2 kt METAR ETHN 212120Z VRB02KT 9999 FEW150 BKN320 11/09 Q1020 BLU+
22:20
V
13 °C 10 km+ 30.000 ft 060°   060° 3 kt METAR ETHN 212020Z 06003KT 9999 SCT150 BKN300 13/09 Q1020 BLU+
21:20
V
14 °C 10 km+ 28.000 ft 040°   040° 3 kt METAR ETHN 211920Z 04003KT 9999 SCT130 BKN280 14/09 Q1020 BLU+
20:20
V
15 °C 10 km+ 20.000 ft 010°   010° 3 kt METAR ETHN 211820Z 01003KT 9999 FEW050 SCT140 BKN200 15/08 Q1020 BLU+
19:20
V
17 °C 10 km+ 16.000 ft 350°   350° 5 kt METAR ETHN 211720Z 35005KT 9999 FEW050 BKN160 17/08 Q1020 BLU
18:20
V
18 °C 10 km+ 18.000 ft 280°   280° 8 kt METAR ETHN 211620Z 28008KT 9999 FEW050 BKN180 18/07 Q1021 BLU
17:20
V
18 °C 10 km+ 24.000 ft 270°   270° 9 kt METAR ETHN 211520Z 27009KT 9999 FEW045 BKN240 18/06 Q1021 BLU+
16:20
V
18 °C 10 km+ 27.000 ft 290°   290° 9 kt METAR ETHN 211420Z 29009KT 9999 FEW045 BKN270 18/07 Q1022 BLU+
15:20
V
17 °C 10 km+ 30.000 ft 280°   280° 11 kt METAR ETHN 211320Z 28011KT 9999 FEW042 BKN300 17/06 Q1022 BLU+
14:20
V
16 °C 10 km+ 30.000 ft 280°   280° 10 kt METAR ETHN 211220Z 28010KT 9999 FEW042 BKN300 16/08 Q1022 BLU+
13:20
V
16 °C 10 km+ 32.000 ft 290°   290° 13 kt METAR ETHN 211120Z 29013KT 9999 FEW035 BKN320 16/06 Q1022 BLU+
12:20
V
15 °C 10 km+ - 270°   270° 9 kt METAR ETHN 211020Z 27009KT 9999 SCT026 SCT320 15/08 Q1023 BLU+
11:20
V
14 °C 10 km+ - 290°   290° 11 kt METAR ETHN 210920Z 29011KT 9999 SCT025 SCT270 14/08 Q1023 BLU+
10:20
M
14 °C 10 km+ 2.300 ft 270°   270° 10 kt METAR ETHN 210820Z 27010KT 9999 BKN023 SCT270 14/08 Q1023 WHT
09:20
M
13 °C 10 km+ 1.800 ft 260°   260° 10 kt METAR ETHN 210720Z 26010KT 9999 BKN018 SCT270 13/09 Q1023 WHT
08:20
V
12 °C 10 km+ 34.000 ft 280°   280° 10 kt METAR ETHN 210620Z 28010KT 9999 FEW018 BKN340 12/08 Q1023 BLU+
07:20
V
12 °C 10 km+ - 270°   270° 7 kt METAR ETHN 210520Z 27007KT 9999 FEW028 12/09 Q1023 BLU+
06:20
V
12 °C 10 km+ - 290°   290° 6 kt METAR ETHN 210420Z 29006KT 9999 FEW028 SCT340 12/09 Q1022 BLU+
05:20
V
12 °C 10 km+ - 290°   290° 9 kt METAR ETHN 210320Z 29009KT 9999 FEW020 12/09 Q1021 BLU+
04:20
V
13 °C 10 km+ - 300°   300° 7 kt METAR ETHN 210220Z 30007KT 9999 FEW020 13/09 Q1021 BLU+
03:20
V
14 °C 10 km+ - 310°   310° 13 kt METAR ETHN 210120Z 31013KT 9999 FEW002 14/11 Q1020 BLU+
02:20
V
15 °C 10 km+ - 300°   300° 9 kt METAR ETHN 210020Z 30009KT 9999 FEW002 15/12 Q1020 BLU+
01:20
V
16 °C 10 km+ - 270°   270° 8 kt METAR ETHN 202320Z 27008KT 9999 FEW020 SCT080 16/14 Q1019 BLU+
00:20
V
17 °C 10 km+ - 290°   290° 9 kt METAR ETHN 202220Z 29009KT 9999 SCT020 SCT080 17/14 Q1019 BLU+

20 de mayo de 2022

Hora Código Tiempo Temp. Visibilidad Nubes Viento METAR/SPECI
23:20
V
18 °C 10 km+ 9.000 ft 270°   270° 11 kt METAR ETHN 202120Z 27011KT 9999 -SHRA FEW020CB SCT025 BKN090 18/16 Q1018 BLU
22:20
V
19 °C 10 km+ 8.000 ft 290°   290° 13 kt METAR ETHN 202020Z 29013KT 9999 -SHRA FEW020CB BKN080 19/15 Q1017 RETS BLU
21:54
V
20 °C 10 km+ 9.000 ft 260°   260° 13 kt METAR ETHN 201954Z 26013KT 9999 -TSRA SCT025CB BKN090 20/15 Q1017 BLU
21:20
V
21 °C 10 km+ 12.000 ft 240°   240° 7 kt METAR ETHN 201920Z 24007KT 9999 FEW025CB BKN120 BKN320 21/15 Q1016 BLU
20:20
V
22 °C 10 km+ 10.000 ft 230°   230° 7 kt METAR ETHN 201820Z 23007KT 9999 FEW025CB BKN100 22/16 Q1016 BLU
19:20
V
23 °C 10 km+ - 200°   200° 8 kt METAR ETHN 201720Z 20008KT 9999 FEW120 23/17 Q1015 BLU+
18:20
V
21 °C 10 km+ - 230°   230° 2 kt METAR ETHN 201620Z 23002KT 9999 FEW100 SCT300 21/18 Q1016 RETSRA BLU+
17:28
I
25 °C 3 km 6.000 ft 290°   290° 12 43 kt METAR ETHN 201528Z 29012G43KT 3000 TSRA BKN060CB BKN080 25/17 Q1017 YLO
17:20
V
26 °C 10 km+ 11.000 ft 300°   300° 7 kt METAR ETHN 201520Z 30007KT 9999 TSRA FEW060CB BKN110 BKN220 26/15 Q1016 BLU
16:20
V
28 °C 10 km+ 35.000 ft 200°   200° 8 kt METAR ETHN 201420Z 20008KT 9999 FEW050 SCT110 BKN350 28/15 Q1017 BLU+
15:20
V
27 °C 10 km+ 35.000 ft 200°   200° 8 kt METAR ETHN 201320Z 20008KT 9999 BKN350 27/17 Q1017 BLU+
14:20
V
27 °C 10 km+ 31.000 ft 200°   200° 6 kt METAR ETHN 201220Z 20006KT 9999 FEW045 BKN310 27/16 Q1019 BLU+
13:20
V
26 °C 10 km+ 31.000 ft 250°   250° 7 kt METAR ETHN 201120Z 25007KT 9999 FEW045 BKN310 26/16 Q1020 BLU+
12:20
V
26 °C 10 km+ 31.000 ft 230°   230° 4 kt METAR ETHN 201020Z 23004KT 9999 FEW050CB BKN310 26/17 Q1021 BLU+
12:00
V
25 °C 10 km+ 31.000 ft 230°   230° 2 kt METAR ETHN 201000Z 23002KT 9999 FEW050CB BKN310 25/17 Q1021 BLU+FCST CANCEL
11:20
V
24 °C 10 km+ 30.000 ft 130°   130° 2 kt METAR ETHN 200920Z 13002KT 9999 FEW050CB BKN300 24/17 Q1021 BLU+BLU+
10:20
V
23 °C 10 km+ 30.000 ft 290°   290° 3 kt METAR ETHN 200820Z 29003KT 9999 FEW050TCU BKN300 23/16 Q1022 BLU+BLU+
09:20
V
21 °C 10 km+ 30.000 ft 190°   190° 4 kt METAR ETHN 200720Z 19004KT 9999 FEW050TCU BKN300 21/16 Q1022 BLU+BLU+
08:20
V
18 °C 10 km+ 30.000 ft 150°   150° 3 kt METAR ETHN 200620Z 15003KT 9999 FEW050TCU SCT100 BKN300 18/15 Q1022 BLU+BLU+
07:20
V
17 °C 10 km+ 26.000 ft 150°   150° 5 kt METAR ETHN 200520Z 15005KT 9999 FEW050TCU SCT090 BKN260 17/14 Q1022 BLU+BLU+
Datos más antiguos

Descarga nuestra aplicación

Acceso fácil a todo el tiempo de la aviación en tu teléfono móvil y tableta.
Con muchas funciones no disponibles en el sitio web, como la compatibilidad sin conexión y una lista personal de aeropuertos.

Nosotros y terceros seguimos tu comportamiento en Internet en nuestro sitio web con cookies. Si continúas, asumimos que estás de acuerdo con nuestra política de cookies. Más información